createdAt,value
2022-10-17T00:01:41.265Z,87.33
2022-10-17T00:04:10.903Z,87.47
2022-10-17T00:06:44.474Z,87.24
2022-10-17T00:09:13.659Z,88.54
2022-10-17T00:11:42.567Z,87.94
2022-10-17T00:14:12.081Z,88.06
2022-10-17T00:16:42.952Z,88.09
2022-10-17T00:19:12.599Z,88.63
2022-10-17T00:21:41.276Z,88.54
2022-10-17T00:24:10.421Z,88.28
2022-10-17T00:26:39.422Z,88.45
2022-10-17T00:29:09.232Z,88.53
2022-10-17T00:31:41.232Z,88.67
2022-10-17T00:34:10.519Z,88.57
2022-10-17T00:36:39.441Z,88.64
2022-10-17T00:39:08.436Z,88.97
2022-10-17T00:41:37.943Z,88.83
2022-10-17T00:44:31.881Z,88.99
2022-10-17T00:47:05.834Z,88.80
2022-10-17T00:49:39.902Z,88.97
2022-10-17T00:52:30.629Z,88.93
2022-10-17T00:55:10.399Z,89.10
2022-10-17T00:57:40.663Z,88.84
2022-10-17T01:00:15.360Z,88.75
2022-10-17T01:02:45.813Z,88.78
2022-10-17T01:05:16.373Z,89.14
2022-10-17T01:07:47.006Z,89.14
2022-10-17T01:10:20.698Z,89.20
2022-10-17T01:13:11.096Z,89.54
2022-10-17T01:16:00.787Z,89.73
2022-10-17T01:18:48.917Z,90.07
2022-10-17T01:21:26.702Z,89.82
2022-10-17T01:24:04.916Z,89.76
2022-10-17T01:26:39.974Z,90.30
2022-10-17T01:29:48.392Z,90.00
2022-10-17T01:32:23.800Z,90.09
2022-10-17T01:35:03.838Z,90.15
2022-10-17T01:38:08.057Z,90.32
2022-10-17T01:41:01.354Z,90.39
2022-10-17T01:43:42.349Z,90.47
2022-10-17T01:46:21.849Z,90.18
2022-10-17T01:48:54.528Z,90.61
2022-10-17T01:51:29.982Z,90.26
2022-10-17T01:54:26.719Z,90.43
2022-10-17T01:57:01.501Z,90.45
2022-10-17T01:59:40.671Z,90.53
2022-10-17T02:02:11.432Z,90.43
2022-10-17T02:04:41.253Z,90.58
2022-10-17T02:07:12.286Z,90.58
2022-10-17T02:09:41.167Z,90.54
2022-10-17T02:12:46.567Z,90.38
2022-10-17T02:15:54.622Z,90.49
2022-10-17T02:19:09.662Z,90.65
2022-10-17T02:21:52.071Z,90.59
2022-10-17T02:24:44.789Z,90.92
2022-10-17T02:27:30.873Z,90.66
2022-10-17T02:30:12.095Z,90.78
2022-10-17T02:32:51.575Z,91.02
2022-10-17T02:35:25.707Z,90.70
2022-10-17T02:37:55.110Z,91.00
2022-10-17T02:40:25.141Z,90.81
2022-10-17T02:42:55.372Z,90.94
2022-10-17T02:45:27.589Z,90.79
2022-10-17T02:48:10.561Z,90.75
2022-10-17T02:51:00.120Z,90.19
2022-10-17T02:53:59.570Z,90.34
2022-10-17T02:56:31.936Z,90.39
2022-10-17T02:59:03.835Z,90.11
2022-10-17T03:01:37.125Z,89.68
2022-10-17T03:04:11.734Z,89.90
2022-10-17T03:06:42.424Z,90.42
2022-10-17T03:09:11.477Z,89.92
2022-10-17T03:11:40.277Z,89.88
2022-10-17T03:14:10.052Z,90.39
2022-10-17T03:16:38.566Z,89.58
2022-10-17T03:19:07.285Z,90.01
2022-10-17T03:21:38.285Z,89.86
2022-10-17T03:24:08.548Z,89.75
2022-10-17T03:26:37.385Z,89.66
2022-10-17T03:29:06.395Z,89.37
2022-10-17T03:31:36.979Z,89.27
2022-10-17T03:34:07.101Z,89.52
2022-10-17T03:36:35.945Z,89.47
2022-10-17T03:39:05.384Z,89.32
2022-10-17T03:41:33.951Z,89.23
2022-10-17T03:44:02.787Z,89.07
2022-10-17T03:46:32.414Z,89.32
2022-10-17T03:49:02.668Z,89.34
2022-10-17T03:51:31.384Z,88.68
2022-10-17T03:54:04.947Z,88.95
2022-10-17T03:56:33.795Z,89.12
2022-10-17T03:59:13.473Z,89.06
2022-10-17T04:01:44.175Z,89.30
2022-10-17T04:04:14.197Z,89.40
2022-10-17T04:06:42.762Z,89.34
2022-10-17T04:09:12.475Z,89.00
2022-10-17T04:11:52.305Z,89.39
2022-10-17T04:14:22.824Z,89.46
2022-10-17T04:16:54.235Z,89.12
2022-10-17T04:19:23.293Z,88.97
2022-10-17T04:21:52.171Z,89.42
2022-10-17T04:24:21.843Z,89.54
2022-10-17T04:26:59.807Z,89.55
2022-10-17T04:29:31.597Z,89.58
2022-10-17T04:32:11.614Z,89.39
2022-10-17T04:34:44.511Z,88.82
2022-10-17T04:37:12.964Z,88.96
2022-10-17T04:39:41.539Z,88.69
2022-10-17T04:42:10.143Z,88.62
2022-10-17T04:44:41.556Z,88.54
2022-10-17T04:47:10.382Z,88.87
2022-10-17T04:52:16.933Z,88.64
2022-10-17T04:54:47.152Z,88.17
2022-10-17T04:57:16.372Z,87.51
2022-10-17T04:59:53.132Z,87.43
2022-10-17T05:02:44.144Z,87.37
2022-10-17T05:05:12.642Z,86.59
2022-10-17T05:07:42.020Z,86.64
2022-10-17T05:10:21.469Z,85.55
2022-10-17T05:12:52.675Z,85.06
2022-10-17T05:15:24.458Z,84.93
2022-10-17T05:17:58.878Z,84.74
2022-10-17T05:20:29.497Z,83.92
2022-10-17T05:23:00.778Z,83.81
2022-10-17T05:25:34.717Z,84.29
2022-10-17T05:28:03.276Z,84.19
2022-10-17T05:30:35.174Z,84.40
2022-10-17T05:33:08.924Z,84.45
2022-10-17T05:35:38.071Z,84.25
2022-10-17T05:38:07.513Z,84.24
2022-10-17T05:40:39.290Z,83.21
2022-10-17T05:43:07.903Z,82.27
2022-10-17T05:45:37.631Z,81.06
2022-10-17T05:48:10.223Z,80.76
2022-10-17T05:50:42.071Z,80.56
2022-10-17T05:53:16.155Z,80.54
2022-10-17T05:56:01.275Z,79.35
2022-10-17T05:58:49.189Z,79.38
2022-10-17T06:01:42.008Z,78.90
2022-10-17T06:04:11.097Z,79.35
2022-10-17T06:06:41.402Z,78.99
2022-10-17T06:09:14.711Z,78.15
2022-10-17T06:11:47.330Z,78.31
2022-10-17T06:14:16.826Z,77.42
2022-10-17T06:16:45.533Z,77.61
2022-10-17T06:19:13.965Z,78.53
2022-10-17T06:21:42.821Z,78.18
2022-10-17T06:24:14.900Z,77.92
2022-10-17T06:26:44.622Z,78.80
2022-10-17T06:29:15.699Z,78.49
2022-10-17T06:31:50.265Z,79.21
2022-10-17T06:34:19.317Z,79.22
2022-10-17T06:36:48.277Z,79.03
2022-10-17T06:39:21.982Z,78.69
2022-10-17T06:42:01.714Z,78.52
2022-10-17T06:44:48.592Z,77.54
2022-10-17T06:47:40.652Z,78.04
2022-10-17T06:50:32.673Z,77.71
2022-10-17T06:53:13.134Z,77.56
2022-10-17T06:56:09.630Z,76.38
2022-10-17T06:59:07.850Z,76.18
2022-10-17T07:01:43.284Z,76.84
2022-10-17T07:04:16.422Z,76.65
2022-10-17T07:06:44.957Z,76.39
2022-10-17T07:09:18.153Z,76.15
2022-10-17T07:11:46.911Z,75.85
2022-10-17T07:14:19.182Z,75.61
2022-10-17T07:16:48.369Z,75.71
2022-10-17T07:19:20.489Z,74.60
2022-10-17T07:21:49.817Z,73.92
2022-10-17T07:24:18.621Z,73.34
2022-10-17T07:26:51.309Z,73.57
2022-10-17T07:29:21.129Z,72.92
2022-10-17T07:32:07.244Z,73.02
2022-10-17T07:34:37.450Z,72.11
2022-10-17T07:37:08.117Z,72.88
2022-10-17T07:39:39.556Z,72.40
2022-10-17T07:42:08.597Z,73.08
2022-10-17T07:44:37.405Z,73.42
2022-10-17T07:47:06.280Z,73.58
2022-10-17T07:49:43.190Z,73.91
2022-10-17T07:52:13.732Z,74.23
2022-10-17T07:54:43.031Z,73.71
2022-10-17T07:57:11.886Z,74.11
2022-10-17T07:59:40.586Z,72.96
2022-10-17T08:02:27.575Z,73.42
2022-10-17T08:04:56.715Z,72.19
2022-10-17T08:07:29.318Z,72.14
2022-10-17T08:09:58.351Z,71.84
2022-10-17T08:12:27.631Z,71.65
2022-10-17T08:14:56.357Z,71.53
2022-10-17T08:17:27.737Z,71.00
2022-10-17T08:19:58.842Z,70.61
2022-10-17T08:22:28.163Z,70.98
2022-10-17T08:24:56.780Z,70.62
2022-10-17T08:27:26.291Z,70.46
2022-10-17T08:29:55.341Z,69.14
2022-10-17T08:32:28.863Z,69.74
2022-10-17T08:34:57.932Z,70.20
2022-10-17T08:37:26.587Z,69.66
2022-10-17T08:39:55.388Z,70.22
2022-10-17T08:42:29.558Z,70.33
2022-10-17T08:45:37.684Z,70.21
2022-10-17T08:48:11.867Z,69.83
2022-10-17T08:50:46.787Z,71.41
2022-10-17T08:53:24.626Z,73.91
2022-10-17T08:55:54.842Z,75.65
2022-10-17T08:58:30.781Z,77.61
2022-10-17T09:01:32.696Z,78.85
2022-10-17T09:04:33.902Z,79.66
2022-10-17T09:07:19.656Z,80.04
2022-10-17T09:09:51.394Z,80.28
2022-10-17T09:12:40.094Z,81.62
2022-10-17T09:15:21.554Z,81.85
2022-10-17T09:18:02.076Z,82.22
2022-10-17T09:20:39.196Z,82.92
2022-10-17T09:23:18.105Z,83.17
2022-10-17T09:25:50.733Z,82.73
2022-10-17T09:28:30.963Z,83.44
2022-10-17T09:31:02.316Z,83.25
2022-10-17T09:33:56.642Z,84.53
2022-10-17T09:36:37.529Z,83.79
2022-10-17T09:39:19.340Z,84.01
2022-10-17T09:41:59.477Z,84.48
2022-10-17T09:44:39.614Z,84.52
2022-10-17T09:47:25.568Z,85.03
2022-10-17T09:49:54.526Z,85.03
2022-10-17T09:52:40.209Z,84.96
2022-10-17T09:55:17.166Z,84.99
2022-10-17T09:57:59.311Z,84.75
2022-10-17T10:00:34.178Z,85.72
2022-10-17T10:03:20.578Z,85.79
2022-10-17T10:06:19.691Z,85.57
2022-10-17T10:08:59.333Z,85.18
2022-10-17T10:12:07.635Z,85.23
2022-10-17T10:14:40.274Z,85.44
2022-10-17T10:17:42.756Z,85.41
2022-10-17T10:20:41.274Z,86.04
2022-10-17T10:23:18.077Z,85.57
2022-10-17T10:25:55.991Z,86.04
2022-10-17T10:28:29.404Z,85.22
2022-10-17T10:31:05.260Z,85.85
2022-10-17T10:33:41.986Z,85.99
2022-10-17T10:36:11.033Z,85.14
2022-10-17T10:38:43.269Z,85.12
2022-10-17T10:41:12.605Z,84.63
2022-10-17T10:43:52.617Z,84.63
2022-10-17T10:46:28.921Z,84.73
2022-10-17T10:49:02.398Z,84.88
2022-10-17T10:51:36.655Z,85.05
2022-10-17T10:54:10.138Z,85.10
2022-10-17T10:56:53.557Z,84.95
2022-10-17T10:59:31.213Z,84.58
2022-10-17T11:02:13.708Z,84.60
2022-10-17T11:05:04.524Z,84.90
2022-10-17T11:07:40.059Z,84.88
2022-10-17T11:10:32.905Z,84.80
2022-10-17T11:13:20.456Z,84.70
2022-10-17T11:16:13.697Z,84.87
2022-10-17T11:19:09.582Z,85.45
2022-10-17T11:21:58.805Z,85.50
2022-10-17T11:24:50.896Z,85.64
2022-10-17T11:27:19.685Z,85.65
2022-10-17T11:29:48.311Z,85.83
2022-10-17T11:32:28.554Z,85.88
2022-10-17T11:35:08.549Z,85.82
2022-10-17T11:37:48.380Z,86.47
2022-10-17T11:40:28.231Z,86.50
2022-10-17T11:43:03.115Z,86.92
2022-10-17T11:45:34.471Z,86.87
2022-10-17T11:48:21.882Z,86.17
2022-10-17T11:54:12.594Z,86.34
2022-10-17T11:56:50.809Z,86.30
2022-10-17T11:59:49.471Z,86.33
2022-10-17T12:02:40.845Z,86.69
2022-10-17T12:05:29.626Z,86.49
2022-10-17T12:08:15.084Z,86.45
2022-10-17T12:10:47.279Z,86.62
2022-10-17T12:13:36.177Z,86.72
2022-10-17T12:16:30.990Z,87.05
2022-10-17T12:19:03.006Z,87.04
2022-10-17T12:22:03.220Z,87.09
2022-10-17T12:24:43.407Z,87.08
2022-10-17T12:27:34.233Z,87.05
2022-10-17T12:30:08.226Z,87.19
2022-10-17T12:33:00.563Z,87.28
2022-10-17T12:35:28.793Z,87.31
2022-10-17T12:37:59.362Z,87.58
2022-10-17T12:40:37.738Z,87.83
2022-10-17T12:43:15.950Z,87.60
2022-10-17T12:45:54.001Z,87.74
2022-10-17T12:48:35.489Z,87.79
2022-10-17T12:51:38.119Z,87.99
2022-10-17T12:54:14.374Z,87.88
2022-10-17T12:56:48.818Z,87.96
2022-10-17T12:59:26.128Z,87.91
2022-10-17T13:01:59.831Z,87.58
2022-10-17T13:04:30.600Z,87.86
2022-10-17T13:07:02.103Z,87.95
2022-10-17T13:09:37.329Z,87.69
2022-10-17T13:12:13.595Z,88.29
2022-10-17T13:14:44.443Z,88.19
2022-10-17T13:17:28.454Z,87.98
2022-10-17T13:19:58.041Z,87.89
2022-10-17T13:22:33.593Z,88.14
2022-10-17T13:25:16.299Z,88.23
2022-10-17T13:27:45.847Z,88.28
2022-10-17T13:30:31.245Z,88.32
2022-10-17T13:33:03.093Z,88.53
2022-10-17T13:35:59.468Z,88.54
2022-10-17T13:38:34.851Z,88.35
2022-10-17T13:41:34.767Z,88.78
2022-10-17T13:44:08.798Z,88.44
2022-10-17T13:46:40.481Z,88.22
2022-10-17T13:49:36.251Z,88.22
2022-10-17T13:52:07.360Z,88.42
2022-10-17T13:54:56.342Z,88.29
2022-10-17T13:57:31.865Z,88.79
2022-10-17T14:00:11.386Z,88.53
2022-10-17T14:02:44.511Z,88.38
2022-10-17T14:05:19.648Z,88.60
2022-10-17T14:08:12.711Z,88.90
2022-10-17T14:10:45.158Z,89.02
2022-10-17T14:13:43.310Z,89.16
2022-10-17T14:16:13.298Z,88.73
2022-10-17T14:18:45.178Z,88.99
2022-10-17T14:24:28.970Z,88.88
2022-10-17T14:27:00.290Z,89.27
2022-10-17T14:29:32.273Z,88.88
2022-10-17T14:32:11.884Z,88.98
2022-10-17T14:34:43.733Z,88.88
2022-10-17T14:37:36.513Z,89.27
2022-10-17T14:40:07.903Z,89.02
2022-10-17T14:42:41.437Z,89.11
2022-10-17T14:45:19.078Z,88.89
2022-10-17T14:47:52.139Z,89.14
2022-10-17T14:50:32.690Z,88.99
2022-10-17T14:53:13.521Z,88.78
2022-10-17T14:55:56.689Z,88.84
2022-10-17T14:58:31.288Z,88.75
2022-10-17T15:01:02.479Z,88.65
2022-10-17T15:03:31.389Z,89.01
2022-10-17T15:06:27.668Z,88.78
2022-10-17T15:08:59.322Z,89.08
2022-10-17T15:11:28.450Z,88.88
2022-10-17T15:13:57.201Z,88.90
2022-10-17T15:16:33.040Z,88.69
2022-10-17T15:19:02.482Z,88.76
2022-10-17T15:21:40.606Z,88.80
2022-10-17T15:24:10.856Z,89.03
2022-10-17T15:26:39.578Z,88.80
2022-10-17T15:29:08.565Z,88.96
2022-10-17T15:31:37.807Z,89.01
2022-10-17T15:34:06.586Z,89.37
2022-10-17T15:36:42.448Z,89.24
2022-10-17T15:39:11.703Z,88.90
2022-10-17T15:41:40.287Z,89.08
2022-10-17T15:44:09.060Z,89.10
2022-10-17T15:46:40.499Z,89.14
2022-10-17T15:49:16.003Z,89.29
2022-10-17T15:51:45.343Z,89.12
2022-10-17T15:54:17.198Z,89.16
2022-10-17T15:56:53.982Z,88.99
2022-10-17T15:59:27.502Z,89.07
2022-10-17T16:01:56.264Z,89.34
2022-10-17T16:04:27.687Z,89.18
2022-10-17T16:06:56.677Z,89.38
2022-10-17T16:09:25.997Z,89.02
2022-10-17T16:11:54.865Z,89.34
2022-10-17T16:14:23.642Z,89.25
2022-10-17T16:16:52.645Z,89.29
2022-10-17T16:19:22.595Z,89.24
2022-10-17T16:21:51.431Z,89.23
2022-10-17T16:24:20.367Z,89.44
2022-10-17T16:26:49.305Z,89.22
2022-10-17T16:29:18.534Z,89.40
2022-10-17T16:31:47.239Z,89.58
2022-10-17T16:34:17.222Z,89.19
2022-10-17T16:36:46.774Z,89.42
2022-10-17T16:39:15.652Z,89.34
2022-10-17T16:41:44.510Z,89.37
2022-10-17T16:44:15.537Z,89.26
2022-10-17T16:46:44.264Z,89.08
2022-10-17T16:49:13.443Z,89.37
2022-10-17T16:51:42.172Z,89.32
2022-10-17T16:54:11.915Z,89.64
2022-10-17T16:56:45.643Z,89.22
2022-10-17T16:59:14.625Z,89.37
2022-10-17T17:01:43.531Z,89.20
2022-10-17T17:04:12.546Z,89.01
2022-10-17T17:06:41.355Z,88.98
2022-10-17T17:09:13.031Z,89.18
2022-10-17T17:11:41.789Z,89.37
2022-10-17T17:14:11.510Z,89.13
2022-10-17T17:16:40.521Z,89.02
2022-10-17T17:19:13.498Z,89.62
2022-10-17T17:21:52.722Z,89.49
2022-10-17T17:24:22.523Z,89.70
2022-10-17T17:26:53.684Z,89.51
2022-10-17T17:29:23.418Z,89.37
2022-10-17T17:31:52.919Z,89.42
2022-10-17T17:34:21.800Z,89.56
2022-10-17T17:36:50.754Z,89.26
2022-10-17T17:39:19.396Z,89.21
2022-10-17T17:41:51.445Z,89.29
2022-10-17T17:44:20.590Z,89.47
2022-10-17T17:46:50.350Z,89.41
2022-10-17T17:49:19.369Z,89.12
2022-10-17T17:51:48.195Z,89.52
2022-10-17T17:54:17.069Z,89.78
2022-10-17T17:56:45.841Z,89.20
2022-10-17T17:59:14.814Z,89.12
2022-10-17T18:01:44.703Z,89.27
2022-10-17T18:04:13.911Z,89.62
2022-10-17T18:06:43.166Z,89.61
2022-10-17T18:09:12.095Z,89.59
2022-10-17T18:11:41.004Z,89.46
2022-10-17T18:14:14.206Z,89.47
2022-10-17T18:16:43.111Z,89.69
2022-10-17T18:19:12.741Z,89.87
2022-10-17T18:21:41.767Z,89.81
2022-10-17T18:24:11.359Z,89.94
2022-10-17T18:26:41.810Z,89.24
2022-10-17T18:29:11.911Z,89.81
2022-10-17T18:31:42.946Z,89.56
2022-10-17T18:34:14.487Z,89.43
2022-10-17T18:36:43.450Z,89.53
2022-10-17T18:39:12.115Z,89.71
2022-10-17T18:41:41.261Z,89.67
2022-10-17T18:44:13.494Z,90.23
2022-10-17T18:46:42.470Z,90.23
2022-10-17T18:49:13.996Z,90.12
2022-10-17T18:51:43.467Z,89.90
2022-10-17T18:54:21.148Z,89.89
2022-10-17T18:56:54.219Z,89.97
2022-10-17T18:59:23.763Z,89.87
2022-10-17T19:01:52.725Z,89.38
2022-10-17T19:04:21.854Z,89.60
2022-10-17T19:06:51.226Z,89.71
2022-10-17T19:09:20.478Z,89.79
2022-10-17T19:11:49.222Z,89.71
2022-10-17T19:14:18.729Z,89.84
2022-10-17T19:16:49.575Z,89.87
2022-10-17T19:19:20.194Z,89.68
2022-10-17T19:21:49.837Z,89.61
2022-10-17T19:24:23.997Z,89.63
2022-10-17T19:26:54.595Z,89.90
2022-10-17T19:29:26.896Z,89.88
2022-10-17T19:31:59.057Z,89.80
2022-10-17T19:34:28.694Z,90.00
2022-10-17T19:36:57.292Z,89.77
2022-10-17T19:39:27.336Z,90.51
2022-10-17T19:41:56.952Z,90.03
2022-10-17T19:44:25.883Z,90.14
2022-10-17T19:46:55.083Z,90.14
2022-10-17T19:49:23.891Z,89.78
2022-10-17T19:51:52.573Z,89.94
2022-10-17T19:54:21.680Z,89.95
2022-10-17T19:56:50.956Z,90.08
2022-10-17T19:59:20.047Z,90.04
2022-10-17T20:01:49.054Z,89.89
2022-10-17T20:04:17.950Z,89.69
2022-10-17T20:06:46.874Z,89.80
2022-10-17T20:09:17.218Z,89.75
2022-10-17T20:11:46.412Z,89.99
2022-10-17T20:14:14.992Z,89.83
2022-10-17T20:16:45.598Z,89.62
2022-10-17T20:19:15.978Z,89.66
2022-10-17T20:21:45.281Z,89.93
2022-10-17T20:24:17.595Z,89.92
2022-10-17T20:26:46.710Z,89.98
2022-10-17T20:29:21.981Z,90.01
2022-10-17T20:31:51.426Z,89.84
2022-10-17T20:34:20.865Z,89.66
2022-10-17T20:36:50.683Z,90.04
2022-10-17T20:39:21.468Z,89.79
2022-10-17T20:41:50.276Z,89.57
2022-10-17T20:44:19.571Z,89.74
2022-10-17T20:47:01.088Z,89.77
2022-10-17T20:49:31.891Z,89.75
2022-10-17T20:52:04.440Z,89.79
2022-10-17T20:54:33.182Z,90.19
2022-10-17T20:57:04.799Z,89.91
2022-10-17T20:59:36.872Z,89.52
2022-10-17T21:02:07.442Z,89.40
2022-10-17T21:04:51.476Z,89.50
2022-10-17T21:07:23.039Z,89.66
2022-10-17T21:09:53.246Z,89.40
2022-10-17T21:12:31.159Z,89.97
2022-10-17T21:15:11.110Z,89.79
2022-10-17T21:17:40.391Z,89.63
2022-10-17T21:20:10.302Z,89.80
2022-10-17T21:22:39.401Z,89.49
2022-10-17T21:25:10.721Z,89.23
2022-10-17T21:27:39.547Z,89.75
2022-10-17T21:32:57.535Z,89.03
2022-10-17T21:35:26.357Z,88.95
2022-10-17T21:37:55.362Z,89.19
2022-10-17T21:40:24.248Z,89.01
2022-10-17T21:42:53.196Z,89.40
2022-10-17T21:45:25.797Z,89.32
2022-10-17T21:48:12.222Z,89.42
2022-10-17T21:50:42.354Z,89.62
2022-10-17T21:53:11.639Z,89.30
2022-10-17T21:55:40.610Z,89.50
2022-10-17T21:58:09.762Z,89.50
2022-10-17T22:00:38.617Z,89.56
2022-10-17T22:03:08.089Z,89.86
2022-10-17T22:05:36.782Z,89.30
2022-10-17T22:08:06.875Z,89.23
2022-10-17T22:10:38.604Z,89.33
2022-10-17T22:13:07.478Z,89.40
2022-10-17T22:15:36.358Z,89.31
2022-10-17T22:18:05.467Z,89.40
2022-10-17T22:20:35.892Z,89.49
2022-10-17T22:23:04.832Z,89.01
2022-10-17T22:25:33.639Z,89.28
2022-10-17T22:28:02.594Z,89.70
2022-10-17T22:30:31.150Z,89.42
2022-10-17T22:32:59.955Z,88.96
2022-10-17T22:35:28.904Z,89.56
2022-10-17T22:37:57.490Z,89.30
2022-10-17T22:40:26.616Z,89.49
2022-10-17T22:42:55.753Z,89.38
2022-10-17T22:45:24.461Z,89.65
2022-10-17T22:47:54.743Z,89.27
2022-10-17T22:50:24.035Z,89.39
2022-10-17T22:52:53.101Z,89.32
2022-10-17T22:55:22.041Z,89.23
2022-10-17T22:57:50.816Z,89.57
2022-10-17T23:00:19.641Z,89.26
2022-10-17T23:02:48.420Z,89.29
2022-10-17T23:05:17.451Z,88.79
2022-10-17T23:07:46.347Z,89.56
2022-10-17T23:10:15.148Z,89.30
2022-10-17T23:12:44.348Z,89.12
2022-10-17T23:15:13.104Z,88.94
2022-10-17T23:17:41.934Z,88.82
2022-10-17T23:20:10.794Z,89.09
2022-10-17T23:22:39.701Z,88.70
2022-10-17T23:25:08.981Z,88.71
2022-10-17T23:27:38.259Z,89.33
2022-10-17T23:30:07.769Z,89.49
2022-10-17T23:32:36.709Z,89.61
2022-10-17T23:35:06.197Z,89.03
2022-10-17T23:37:36.351Z,89.36
2022-10-17T23:40:07.165Z,89.58
2022-10-17T23:42:35.856Z,89.26
2022-10-17T23:45:05.061Z,89.63
2022-10-17T23:47:34.257Z,89.58
2022-10-17T23:50:03.348Z,90.04
2022-10-17T23:52:32.310Z,90.08
2022-10-17T23:55:01.658Z,89.84
2022-10-17T23:57:30.635Z,89.77
2022-10-17T23:59:59.420Z,90.09
